Time;durP1;ratioP1;P1;durP2;ratioP2;P2;SDS_P1;SDS_P2;PMS_P1;PMS_P2;Temp;Humidity;BMP_temperature;BMP_pressure;BME280_temperature;BME280_humidity;BME280_pressure;Samples;Min_cycle;Max_cycle;Signal;HPM_P1;HPM_P2
2022/10/25 00:00:48;;;;;;;0.43;0.43;;;;;;;12.93;96.03;95709.50;4339623;32;20193;-61
2022/10/25 00:03:13;;;;;;;1.07;0.50;;;;;;;12.97;95.88;95715.81;4360176;32;20185;-61
2022/10/25 00:05:40;;;;;;;0.43;0.43;;;;;;;12.97;95.86;95716.63;4337684;32;20204;-61
2022/10/25 00:08:06;;;;;;;0.30;0.30;;;;;;;13.05;95.14;95718.59;4323443;32;20236;-61
2022/10/25 00:10:33;;;;;;;1.27;0.77;;;;;;;12.97;95.53;95721.16;4332493;32;20208;-62
2022/10/25 00:12:58;;;;;;;0.87;0.77;;;;;;;12.94;95.87;95722.53;4348319;32;20205;-61
2022/10/25 00:15:24;;;;;;;0.30;0.30;;;;;;;12.91;95.82;95717.78;4329767;32;20304;-61
2022/10/25 00:17:49;;;;;;;0.97;0.53;;;;;;;13.01;94.98;95717.59;4332971;32;20201;-61
2022/10/25 00:20:15;;;;;;;0.10;0.10;;;;;;;13.05;95.10;95707.94;4360593;32;20213;-61
2022/10/25 00:22:41;;;;;;;0.40;0.40;;;;;;;13.08;94.47;95709.22;4338638;32;20247;-61
2022/10/25 00:25:07;;;;;;;3.00;0.93;;;;;;;13.06;94.10;95708.72;4348693;32;20212;-61
2022/10/25 00:27:33;;;;;;;0.20;0.20;;;;;;;13.01;94.06;95704.28;4345368;32;20227;-61
2022/10/25 00:29:59;;;;;;;0.17;0.17;;;;;;;13.06;93.96;95709.50;4329892;32;20228;-61
2022/10/25 00:32:24;;;;;;;0.70;0.70;;;;;;;13.06;94.02;95704.19;4337822;32;20205;-61
2022/10/25 00:34:50;;;;;;;0.20;0.20;;;;;;;13.04;94.09;95711.69;4337926;32;20221;-61
2022/10/25 00:37:15;;;;;;;0.33;0.33;;;;;;;12.92;94.62;95708.72;4358887;32;20255;-61
2022/10/25 00:39:40;;;;;;;0.20;0.20;;;;;;;12.92;93.87;95705.28;4360695;32;20249;-61
2022/10/25 00:42:08;;;;;;;0.13;0.13;;;;;;;12.92;94.36;95707.94;4341528;32;20240;-60
2022/10/25 00:44:39;;;;;;;0.20;0.20;;;;;;;12.90;94.10;95702.13;4352762;32;20223;-61
2022/10/25 00:47:36;;;;;;;0.93;0.67;;;;;;;12.94;94.16;95705.75;4360915;32;20204;-61
2022/10/25 00:50:27;;;;;;;0.60;0.57;;;;;;;12.84;94.34;95706.00;4332234;32;20217;-62
2022/10/25 00:52:58;;;;;;;0.40;0.40;;;;;;;12.80;94.37;95705.78;4347110;32;20221;-58
2022/10/25 00:55:26;;;;;;;0.40;0.40;;;;;;;12.80;94.63;95716.44;4352284;32;20193;-59
2022/10/25 00:58:01;;;;;;;0.40;0.40;;;;;;;12.80;94.52;95713.00;4345482;32;20197;-58
2022/10/25 01:00:26;;;;;;;0.23;0.23;;;;;;;12.88;94.04;95702.44;4330691;32;20304;-58
2022/10/25 01:02:52;;;;;;;0.13;0.13;;;;;;;12.88;93.85;95707.75;4341020;32;20193;-58
2022/10/25 01:05:18;;;;;;;0.10;0.07;;;;;;;12.77;94.58;95706.38;4326700;32;20189;-58
2022/10/25 01:07:44;;;;;;;0.10;0.10;;;;;;;12.62;95.02;95704.03;4335007;32;20201;-58
2022/10/25 01:10:10;;;;;;;0.10;0.10;;;;;;;12.50;95.52;95703.72;4339302;32;20291;-59
2022/10/25 01:12:35;;;;;;;0.17;0.17;;;;;;;12.56;95.29;95697.22;4358954;32;20238;-58
2022/10/25 01:15:01;;;;;;;0.10;0.10;;;;;;;12.47;95.37;95691.03;4341612;32;20200;-62
2022/10/25 01:17:36;;;;;;;0.33;0.33;;;;;;;12.47;95.16;95697.09;4347212;32;20193;-59
2022/10/25 01:20:38;;;;;;;0.27;0.27;;;;;;;12.51;94.94;95694.66;4342767;32;20197;-59
2022/10/25 01:23:39;;;;;;;0.00;0.00;;;;;;;12.53;95.05;95692.47;4347992;32;20208;-59
2022/10/25 01:26:10;;;;;;;0.10;0.10;;;;;;;12.41;95.96;95693.00;4357565;32;20208;-58
2022/10/25 01:28:38;;;;;;;0.30;0.30;;;;;;;12.33;96.48;95681.16;4347317;32;20193;-59
2022/10/25 01:31:24;;;;;;;0.27;0.27;;;;;;;12.33;95.93;95685.69;4352281;32;20231;-58
2022/10/25 01:33:57;;;;;;;0.10;0.10;;;;;;;12.28;96.08;95694.53;4323914;32;20216;-58
2022/10/25 01:36:51;;;;;;;0.10;0.10;;;;;;;12.26;96.28;95690.62;4345620;32;20193;-58
2022/10/25 01:39:27;;;;;;;0.30;0.30;;;;;;;12.31;96.09;95674.53;4350474;32;20232;-59
2022/10/25 01:42:26;;;;;;;9.90;0.90;;;;;;;12.27;96.17;95676.22;4349245;32;20203;-59
2022/10/25 01:44:53;;;;;;;0.20;0.20;;;;;;;12.15;96.53;95683.91;4321823;32;20325;-59
2022/10/25 01:47:28;;;;;;;0.23;0.23;;;;;;;12.17;96.70;95673.75;4340542;32;20202;-59
2022/10/25 01:49:58;;;;;;;0.20;0.20;;;;;;;12.18;95.91;95667.34;4331335;32;20207;-59
2022/10/25 01:52:24;;;;;;;0.20;0.20;;;;;;;12.29;95.66;95666.84;4341197;32;20197;-60
2022/10/25 01:54:50;;;;;;;0.30;0.30;;;;;;;12.25;95.60;95663.22;4334036;32;20224;-59
2022/10/25 01:57:36;;;;;;;0.10;0.10;;;;;;;12.21;96.09;95670.22;4332773;32;20206;-59
2022/10/25 02:00:09;;;;;;;0.63;0.47;;;;;;;12.33;95.57;95673.16;4329573;32;20204;-60
2022/10/25 02:02:57;;;;;;;0.10;0.10;;;;;;;12.43;94.81;95679.37;4340411;32;20224;-59
2022/10/25 02:05:22;;;;;;;0.47;0.47;;;;;;;12.45;94.56;95677.22;4350818;32;20216;-59
2022/10/25 02:08:04;;;;;;;0.23;0.23;;;;;;;12.43;94.40;95674.84;4338101;32;20249;-60
2022/10/25 02:10:50;;;;;;;3.10;1.00;;;;;;;12.32;94.75;95684.88;4338483;32;20219;-59
2022/10/25 02:13:18;;;;;;;0.30;0.10;;;;;;;12.33;95.24;95675.03;4337892;32;20208;-59
2022/10/25 02:16:16;;;;;;;0.03;0.03;;;;;;;12.42;94.47;95691.12;4353022;32;20204;-60
2022/10/25 02:18:47;;;;;;;0.20;0.20;;;;;;;12.39;94.94;95685.31;4328544;32;20198;-59
2022/10/25 02:21:15;;;;;;;0.03;0.03;;;;;;;12.45;94.34;95680.69;4342804;32;20172;-59
2022/10/25 02:23:40;;;;;;;0.10;0.10;;;;;;;12.52;93.64;95683.72;4327476;32;20220;-59
2022/10/25 02:26:09;;;;;;;3.97;0.70;;;;;;;12.57;93.55;95691.59;4343061;32;20284;-59
2022/10/25 02:28:38;;;;;;;0.20;0.20;;;;;;;12.52;94.06;95690.91;4330636;32;20203;-59
2022/10/25 02:31:06;;;;;;;7.97;0.70;;;;;;;12.47;94.98;95685.69;4342006;32;20185;-60
2022/10/25 02:33:32;;;;;;;0.30;0.30;;;;;;;12.50;94.63;95688.53;4343680;32;20300;-60
2022/10/25 02:36:10;;;;;;;0.10;0.10;;;;;;;12.56;94.34;95694.56;4344011;32;20204;-59
2022/10/25 02:38:35;;;;;;;0.27;0.27;;;;;;;12.63;94.37;95695.75;4340505;32;20248;-59
2022/10/25 02:41:03;;;;;;;0.10;0.10;;;;;;;12.56;94.56;95694.56;4341450;32;20189;-60
2022/10/25 02:43:28;;;;;;;0.33;0.33;;;;;;;12.57;94.59;95698.81;4350912;32;20224;-59
2022/10/25 02:45:54;;;;;;;0.23;0.23;;;;;;;12.68;94.07;95698.28;4343945;32;20189;-60
2022/10/25 02:48:19;;;;;;;0.53;0.40;;;;;;;12.63;94.35;95700.28;4326611;33;20305;-61
2022/10/25 02:50:44;;;;;;;0.10;0.10;;;;;;;12.53;94.89;95701.25;4346321;32;20244;-60
2022/10/25 02:53:09;;;;;;;0.43;0.30;;;;;;;12.62;94.80;95706.69;4346645;32;20198;-59
2022/10/25 02:55:35;;;;;;;0.63;0.27;;;;;;;12.52;94.73;95699.69;4349317;32;20189;-60
2022/10/25 02:58:00;;;;;;;0.50;0.50;;;;;;;12.63;95.59;95694.97;4346046;32;20198;-59
2022/10/25 03:00:25;;;;;;;0.53;0.53;;;;;;;12.65;96.27;95700.78;4328372;32;20193;-60
2022/10/25 03:02:51;;;;;;;0.20;0.20;;;;;;;12.83;95.28;95699.88;4330032;32;20276;-60
2022/10/25 03:05:16;;;;;;;0.00;0.00;;;;;;;12.56;95.86;95695.34;4337885;32;20259;-59
2022/10/25 03:07:41;;;;;;;1.03;0.43;;;;;;;12.77;95.62;95695.72;4355296;32;20196;-60
2022/10/25 03:10:07;;;;;;;0.07;0.07;;;;;;;12.90;95.37;95694.13;4332859;32;20176;-60
2022/10/25 03:12:32;;;;;;;0.53;0.23;;;;;;;12.96;95.55;95701.72;4329817;33;20193;-61
2022/10/25 03:14:58;;;;;;;0.13;0.13;;;;;;;12.91;95.70;95704.47;4345899;32;20189;-59
2022/10/25 03:17:23;;;;;;;0.10;0.10;;;;;;;13.04;94.82;95701.03;4343812;32;20189;-60
2022/10/25 03:19:48;;;;;;;0.20;0.20;;;;;;;13.01;94.50;95701.63;4337709;32;20311;-59
2022/10/25 03:22:14;;;;;;;0.10;0.10;;;;;;;13.03;95.26;95702.13;4344796;32;20201;-60
2022/10/25 03:24:39;;;;;;;0.30;0.30;;;;;;;13.03;95.29;95696.78;4333014;32;20216;-59
2022/10/25 03:27:04;;;;;;;0.00;0.00;;;;;;;13.02;95.15;95703.19;4358229;32;20189;-59
2022/10/25 03:29:30;;;;;;;0.10;0.10;;;;;;;13.05;94.74;95702.59;4353852;32;20194;-58
2022/10/25 03:31:55;;;;;;;0.30;0.30;;;;;;;13.09;94.32;95702.81;4340938;32;20253;-59
2022/10/25 03:34:20;;;;;;;0.10;0.10;;;;;;;13.14;93.81;95707.22;4362083;32;20284;-58
2022/10/25 03:36:46;;;;;;;0.03;0.03;;;;;;;13.18;93.36;95705.56;4360304;32;20232;-58
2022/10/25 03:39:11;;;;;;;0.30;0.30;;;;;;;13.08;94.20;95704.69;4346818;32;20211;-58
2022/10/25 03:41:36;;;;;;;0.00;0.00;;;;;;;13.18;94.03;95716.22;4345175;32;20225;-59
2022/10/25 03:44:02;;;;;;;0.73;0.37;;;;;;;13.13;93.74;95710.97;4333497;32;20199;-58
2022/10/25 03:46:27;;;;;;;0.33;0.33;;;;;;;13.18;93.36;95718.88;4348056;32;20209;-58
2022/10/25 03:48:52;;;;;;;0.00;0.00;;;;;;;13.14;93.79;95721.31;4359641;32;20246;-58
2022/10/25 03:51:18;;;;;;;0.20;0.20;;;;;;;13.21;93.66;95718.28;4348647;32;20239;-58
2022/10/25 03:53:43;;;;;;;0.13;0.13;;;;;;;13.12;94.08;95718.16;4347919;32;20220;-59
2022/10/25 03:56:08;;;;;;;0.20;0.20;;;;;;;13.16;94.14;95713.06;4334504;32;20224;-59
2022/10/25 03:58:34;;;;;;;0.03;0.03;;;;;;;13.19;94.17;95715.91;4344526;32;20215;-59
2022/10/25 04:00:59;;;;;;;0.03;0.03;;;;;;;13.14;95.27;95716.00;4350344;32;20185;-58
2022/10/25 04:03:24;;;;;;;0.30;0.30;;;;;;;13.14;94.43;95717.84;4360454;32;20223;-59
2022/10/25 04:05:50;;;;;;;0.00;0.00;;;;;;;13.06;94.32;95722.03;4328894;32;20245;-59
2022/10/25 04:08:15;;;;;;;0.00;0.00;;;;;;;13.11;94.57;95731.78;4346226;32;20193;-59
2022/10/25 04:10:40;;;;;;;0.10;0.10;;;;;;;13.11;94.32;95721.91;4355865;32;20193;-59
2022/10/25 04:13:06;;;;;;;0.07;0.07;;;;;;;13.04;94.50;95726.88;4341191;32;20209;-58
2022/10/25 04:15:31;;;;;;;0.33;0.33;;;;;;;13.17;94.24;95726.09;4343348;32;20255;-61
2022/10/25 04:17:56;;;;;;;16.40;0.50;;;;;;;13.16;93.97;95739.69;4334647;32;20248;-59
2022/10/25 04:20:22;;;;;;;0.07;0.07;;;;;;;13.16;94.32;95732.50;4333934;32;20253;-59
2022/10/25 04:22:56;;;;;;;1.73;0.70;;;;;;;13.14;95.21;95747.16;4347801;32;20189;-59
2022/10/25 04:25:26;;;;;;;0.43;0.43;;;;;;;13.17;94.10;95736.75;4344920;32;20281;-59
2022/10/25 04:27:52;;;;;;;0.57;0.40;;;;;;;13.19;93.84;95720.44;4334961;32;20347;-59
2022/10/25 04:30:18;;;;;;;0.00;0.00;;;;;;;13.20;93.35;95727.34;4331547;32;20209;-59
2022/10/25 04:32:44;;;;;;;0.20;0.20;;;;;;;13.20;93.37;95724.69;4348774;32;20205;-59
2022/10/25 04:35:09;;;;;;;0.20;0.20;;;;;;;13.11;94.54;95713.12;4333392;32;20243;-59
2022/10/25 04:37:35;;;;;;;0.00;0.00;;;;;;;13.16;93.77;95719.19;4346826;32;20247;-60
2022/10/25 04:40:00;;;;;;;0.50;0.50;;;;;;;13.26;92.83;95718.19;4361298;32;20189;-59
2022/10/25 04:42:25;;;;;;;0.30;0.30;;;;;;;13.15;93.67;95722.09;4346367;32;20212;-59
2022/10/25 04:44:51;;;;;;;0.00;0.00;;;;;;;13.01;94.65;95724.81;4331335;32;20315;-59
2022/10/25 04:47:16;;;;;;;0.00;0.00;;;;;;;12.95;94.30;95718.78;4332619;32;20220;-58
2022/10/25 04:49:41;;;;;;;0.00;0.00;;;;;;;13.08;94.64;95723.31;4336948;32;20264;-58
2022/10/25 04:52:07;;;;;;;2.17;0.40;;;;;;;13.07;94.49;95721.75;4351771;32;20197;-58
2022/10/25 04:54:32;;;;;;;0.37;0.37;;;;;;;12.99;94.45;95716.31;4343362;32;20182;-59
2022/10/25 04:56:58;;;;;;;0.40;0.40;;;;;;;13.04;93.90;95722.34;4351964;32;20223;-58
2022/10/25 04:59:23;;;;;;;0.20;0.20;;;;;;;13.15;93.56;95724.75;4349742;32;20186;-58
2022/10/25 05:01:49;;;;;;;0.10;0.10;;;;;;;13.06;93.45;95722.81;4357880;32;20277;-58
2022/10/25 05:04:14;;;;;;;0.40;0.40;;;;;;;13.01;93.30;95730.91;4340097;32;20190;-58
2022/10/25 05:06:39;;;;;;;0.83;0.50;;;;;;;12.85;94.11;95727.00;4342387;32;20185;-58
2022/10/25 05:09:05;;;;;;;0.13;0.13;;;;;;;13.01;93.96;95725.59;4351469;32;20205;-59
2022/10/25 05:11:31;;;;;;;0.10;0.10;;;;;;;12.90;93.66;95732.19;4344523;32;20231;-58
2022/10/25 05:13:56;;;;;;;0.00;0.00;;;;;;;12.86;94.42;95735.78;4328953;32;20257;-58
2022/10/25 05:16:23;;;;;;;0.03;0.03;;;;;;;12.93;93.69;95734.28;4337532;32;20212;-58
2022/10/25 05:18:53;;;;;;;0.37;0.37;;;;;;;12.88;93.90;95734.41;4330716;32;20249;-58
2022/10/25 05:21:19;;;;;;;0.17;0.17;;;;;;;12.80;94.22;95737.75;4338155;32;20201;-58
2022/10/25 05:23:45;;;;;;;0.20;0.20;;;;;;;12.83;93.94;95736.38;4330570;32;20216;-58
2022/10/25 05:26:13;;;;;;;0.00;0.00;;;;;;;12.90;94.08;95737.53;4343038;32;20209;-58
2022/10/25 05:28:42;;;;;;;0.37;0.23;;;;;;;12.78;94.48;95729.25;4329710;32;20194;-58
2022/10/25 05:31:13;;;;;;;0.50;0.50;;;;;;;12.78;94.07;95739.13;4333122;32;20189;-58
2022/10/25 05:33:38;;;;;;;0.00;0.00;;;;;;;12.81;94.09;95731.34;4343700;32;20298;-58
2022/10/25 05:36:04;;;;;;;0.50;0.37;;;;;;;12.87;94.68;95738.13;4339754;32;20223;-58
2022/10/25 05:38:29;;;;;;;0.03;0.03;;;;;;;12.84;94.05;95736.06;4329445;32;20193;-59
2022/10/25 05:40:56;;;;;;;0.30;0.30;;;;;;;12.91;93.82;95733.78;4334629;32;20197;-58
2022/10/25 05:43:23;;;;;;;0.30;0.30;;;;;;;12.91;93.87;95740.97;4340454;32;20276;-58
2022/10/25 05:45:48;;;;;;;0.10;0.10;;;;;;;12.85;94.08;95744.84;4324896;32;20213;-58
2022/10/25 05:48:14;;;;;;;0.10;0.10;;;;;;;12.96;94.04;95739.00;4338819;32;20208;-60
2022/10/25 05:50:40;;;;;;;0.37;0.37;;;;;;;12.95;94.00;95747.28;4333312;32;20216;-59
2022/10/25 05:53:05;;;;;;;0.00;0.00;;;;;;;12.89;94.11;95751.91;4340658;32;20197;-58
2022/10/25 05:55:32;;;;;;;0.30;0.30;;;;;;;12.97;93.98;95756.56;4345722;32;20234;-58
2022/10/25 05:57:58;;;;;;;0.30;0.30;;;;;;;12.99;93.89;95750.94;4345576;32;20201;-59
2022/10/25 06:00:23;;;;;;;0.20;0.20;;;;;;;12.89;94.34;95753.78;4344263;32;20228;-59
2022/10/25 06:02:48;;;;;;;0.93;0.43;;;;;;;12.86;94.36;95757.06;4332139;32;20220;-58
2022/10/25 06:05:14;;;;;;;0.30;0.30;;;;;;;12.85;94.28;95758.94;4355700;32;20189;-59
2022/10/25 06:07:39;;;;;;;0.00;0.00;;;;;;;12.84;94.48;95764.56;4332920;32;20198;-58
2022/10/25 06:10:05;;;;;;;0.60;0.60;;;;;;;12.96;94.31;95768.31;4331962;32;20303;-59
2022/10/25 06:12:30;;;;;;;0.20;0.20;;;;;;;12.87;94.62;95764.78;4338563;32;20251;-58
2022/10/25 06:14:56;;;;;;;0.10;0.10;;;;;;;13.04;94.38;95775.59;4348576;32;20193;-58
2022/10/25 06:17:21;;;;;;;0.33;0.33;;;;;;;13.00;94.34;95771.94;4358609;32;20272;-45
2022/10/25 06:19:46;;;;;;;0.40;0.40;;;;;;;14.35;100.00;95775.59;4337535;32;20271;-47
2022/10/25 06:22:11;;;;;;;1.90;0.33;;;;;;;15.06;100.00;95782.53;4344856;32;20181;-43
2022/10/25 06:24:37;;;;;;;3.00;0.77;;;;;;;15.22;100.00;95780.22;4338274;32;20238;-45
2022/10/25 06:27:02;;;;;;;4.83;0.60;;;;;;;15.41;100.00;95774.59;4344710;32;20200;-46
2022/10/25 06:29:28;;;;;;;0.00;0.00;;;;;;;15.51;95.19;95787.69;4327903;33;20242;-47
2022/10/25 06:31:53;;;;;;;0.20;0.20;;;;;;;15.85;92.61;95792.28;4335577;32;20208;-45
2022/10/25 06:34:19;;;;;;;0.10;0.10;;;;;;;15.94;89.21;95793.09;4343220;32;20189;-48
2022/10/25 06:36:44;;;;;;;0.00;0.00;;;;;;;16.12;89.10;95794.66;4341393;32;20185;-45
2022/10/25 06:39:10;;;;;;;0.00;0.00;;;;;;;16.25;87.69;95792.09;4341035;32;20205;-44
2022/10/25 06:41:35;;;;;;;0.20;0.20;;;;;;;16.30;85.78;95792.72;4331033;32;20194;-45
2022/10/25 06:44:00;;;;;;;0.13;0.13;;;;;;;16.26;85.09;95801.69;4332795;32;20189;-45
2022/10/25 06:46:31;;;;;;;0.40;0.40;;;;;;;16.37;85.18;95794.94;4330235;32;20194;-42
2022/10/25 06:48:58;;;;;;;0.23;0.23;;;;;;;16.41;85.14;95801.22;4343789;32;20189;-46
2022/10/25 06:51:26;;;;;;;0.50;0.50;;;;;;;16.44;85.83;95803.25;4342772;32;20235;-47
2022/10/25 06:53:55;;;;;;;1.60;1.00;;;;;;;16.80;94.78;95801.00;4345385;32;20260;-45
2022/10/25 06:56:21;;;;;;;0.97;0.97;;;;;;;16.83;94.75;95805.69;4327852;32;20205;-43
2022/10/25 06:58:46;;;;;;;0.47;0.47;;;;;;;16.76;92.40;95807.31;4330288;32;20193;-44
2022/10/25 07:01:15;;;;;;;0.67;0.50;;;;;;;16.62;91.00;95804.03;4343863;32;20189;-46
2022/10/25 07:03:41;;;;;;;0.43;0.43;;;;;;;16.59;90.98;95800.09;4358147;32;20235;-46
2022/10/25 07:06:09;;;;;;;6.80;0.90;;;;;;;16.61;88.33;95805.91;4345788;32;20190;-45
2022/10/25 07:08:36;;;;;;;0.80;0.50;;;;;;;16.74;89.89;95804.16;4349858;32;20249;-45
2022/10/25 07:11:02;;;;;;;0.23;0.23;;;;;;;16.52;86.00;95807.81;4318772;32;20206;-58
2022/10/25 07:13:30;;;;;;;16.30;0.97;;;;;;;16.60;87.61;95808.91;4353328;32;20267;-44
2022/10/25 07:16:07;;;;;;;0.63;0.63;;;;;;;16.65;89.13;95814.09;4352283;32;20212;-46
2022/10/25 07:18:34;;;;;;;0.63;0.63;;;;;;;16.57;87.22;95814.91;4339141;32;20207;-47
2022/10/25 07:21:00;;;;;;;0.10;0.10;;;;;;;16.62;87.67;95810.16;4345244;33;20192;-44
2022/10/25 07:23:27;;;;;;;0.17;0.17;;;;;;;16.45;85.38;95815.53;4352878;32;20203;-46
2022/10/25 07:25:53;;;;;;;0.30;0.30;;;;;;;16.67;86.25;95820.72;4319104;33;20198;-46
2022/10/25 07:28:18;;;;;;;0.70;0.53;;;;;;;16.69;85.67;95829.22;4329763;33;20185;-43
2022/10/25 07:30:47;;;;;;;5.20;1.00;;;;;;;16.82;83.95;95830.16;4338221;32;20196;-45
2022/10/25 07:33:17;;;;;;;0.30;0.30;;;;;;;16.84;87.09;95833.28;4335953;33;20201;-44
2022/10/25 07:35:49;;;;;;;0.30;0.30;;;;;;;16.85;87.10;95837.53;4343000;32;20197;-46
2022/10/25 07:38:15;;;;;;;0.50;0.50;;;;;;;16.90;85.72;95842.72;4354370;32;20189;-45
2022/10/25 07:40:41;;;;;;;0.57;0.57;;;;;;;17.01;85.30;95838.59;4342848;32;20189;-43
2022/10/25 07:43:07;;;;;;;0.53;0.33;;;;;;;17.21;84.29;95839.00;4335412;32;20201;-44
2022/10/25 07:45:32;;;;;;;0.97;0.30;;;;;;;17.38;84.82;95838.91;4343435;32;20201;-63
2022/10/25 07:47:57;;;;;;;0.53;0.30;;;;;;;16.24;80.36;95838.72;4321131;33;20189;-62
2022/10/25 07:50:23;;;;;;;1.30;0.30;;;;;;;15.65;84.05;95844.50;4350607;32;20209;-62
2022/10/25 07:52:48;;;;;;;2.67;0.63;;;;;;;15.54;83.68;95843.22;4345651;32;20247;-62
2022/10/25 07:55:14;;;;;;;1.40;0.63;;;;;;;15.30;85.61;95838.28;4350410;32;20252;-62
2022/10/25 07:57:39;;;;;;;0.20;0.20;;;;;;;15.12;86.07;95850.78;4343446;32;20204;-63
2022/10/25 08:00:07;;;;;;;0.50;0.30;;;;;;;15.03;86.73;95844.63;4352699;32;20204;-63
2022/10/25 08:02:33;;;;;;;1.03;0.43;;;;;;;14.94;87.08;95851.03;4323179;33;20241;-63
2022/10/25 08:04:58;;;;;;;1.80;0.93;;;;;;;14.87;87.32;95851.47;4344565;32;20208;-62
2022/10/25 08:07:24;;;;;;;0.73;0.40;;;;;;;14.91;88.49;95849.75;4330736;32;20239;-62
2022/10/25 08:09:49;;;;;;;0.87;0.30;;;;;;;14.91;87.95;95846.31;4342204;32;20097;-61
2022/10/25 08:12:15;;;;;;;0.00;0.00;;;;;;;14.97;88.14;95847.72;4341962;32;20289;-62
2022/10/25 08:14:40;;;;;;;1.13;0.73;;;;;;;15.04;88.71;95845.41;4329683;32;20186;-62
2022/10/25 08:17:06;;;;;;;1.67;1.50;;;;;;;15.04;87.78;95848.88;4344060;32;20257;-62
2022/10/25 08:19:31;;;;;;;0.93;0.90;;;;;;;14.98;88.58;95847.41;4355170;32;20238;-62
2022/10/25 08:21:56;;;;;;;0.40;0.40;;;;;;;14.98;88.49;95847.41;4348766;32;20189;-62
2022/10/25 08:24:22;;;;;;;0.30;0.30;;;;;;;15.02;87.77;95844.91;4355965;32;20289;-62
2022/10/25 08:26:47;;;;;;;0.20;0.20;;;;;;;15.01;88.05;95844.12;4340141;32;20221;-62
2022/10/25 08:29:12;;;;;;;0.60;0.40;;;;;;;14.97;88.03;95845.84;4332954;32;20257;-61
2022/10/25 08:31:38;;;;;;;0.20;0.20;;;;;;;15.02;88.12;95842.25;4331528;32;20213;-61
2022/10/25 08:34:03;;;;;;;0.20;0.10;;;;;;;15.02;87.60;95839.56;4346274;32;20248;-62
2022/10/25 08:36:28;;;;;;;0.30;0.30;;;;;;;14.99;85.78;95846.31;4361563;32;20207;-63
2022/10/25 08:38:54;;;;;;;0.07;0.07;;;;;;;15.07;84.90;95845.59;4348649;32;20367;-61
2022/10/25 08:41:41;;;;;;;2.27;0.83;;;;;;;15.09;85.19;95843.38;4332023;32;20248;-61
2022/10/25 08:44:07;;;;;;;0.83;0.40;;;;;;;15.13;84.82;95844.34;4345374;32;20206;-62
2022/10/25 08:46:36;;;;;;;0.20;0.20;;;;;;;15.21;85.18;95834.78;4349792;32;20200;-62
2022/10/25 08:49:15;;;;;;;0.23;0.23;;;;;;;15.17;85.06;95841.84;4341925;32;20194;-61
2022/10/25 08:51:44;;;;;;;2.20;0.40;;;;;;;15.24;84.25;95846.72;4351639;32;20184;-61
2022/10/25 08:54:19;;;;;;;0.63;0.63;;;;;;;15.21;84.11;95845.47;4345816;32;20190;-60
2022/10/25 08:56:44;;;;;;;0.30;0.27;;;;;;;15.22;84.57;95846.25;4350469;32;20181;-60
2022/10/25 08:59:20;;;;;;;1.13;0.50;;;;;;;15.27;84.14;95846.13;4346278;32;20197;-61
2022/10/25 09:01:53;;;;;;;0.20;0.20;;;;;;;15.33;84.53;95840.34;4348153;32;20285;-60
2022/10/25 09:04:20;;;;;;;0.10;0.10;;;;;;;15.35;83.37;95851.50;4353033;32;20216;-59
2022/10/25 09:06:51;;;;;;;0.47;0.40;;;;;;;15.39;85.56;95848.97;4340716;32;20208;-59
2022/10/25 09:09:32;;;;;;;3.33;1.03;;;;;;;15.44;83.70;95843.50;4343686;32;20181;-58
2022/10/25 09:12:08;;;;;;;0.37;0.13;;;;;;;15.48;83.46;95849.81;4345553;32;20233;-58
2022/10/25 09:15:01;;;;;;;0.90;0.40;;;;;;;15.52;82.84;95842.75;4323402;32;20189;-59
2022/10/25 09:17:53;;;;;;;0.40;0.30;;;;;;;15.51;82.62;95849.19;4344561;32;20186;-58
2022/10/25 09:20:31;;;;;;;0.10;0.10;;;;;;;15.58;82.94;95846.87;4338169;32;20263;-60
2022/10/25 09:22:59;;;;;;;0.63;0.63;;;;;;;15.60;82.57;95847.31;4349809;32;20206;-60
2022/10/25 09:25:25;;;;;;;0.00;0.00;;;;;;;15.62;82.50;95842.47;4358387;32;20241;-60
2022/10/25 09:27:59;;;;;;;0.40;0.20;;;;;;;15.70;81.93;95851.59;4346476;32;20182;-61
2022/10/25 09:30:28;;;;;;;0.40;0.40;;;;;;;15.78;81.43;95835.59;4329896;32;20193;-59
2022/10/25 09:32:59;;;;;;;0.23;0.23;;;;;;;15.71;81.32;95845.16;4333273;32;20232;-60
2022/10/25 09:35:40;;;;;;;0.40;0.40;;;;;;;15.74;81.22;95831.16;4331664;32;20189;-60
2022/10/25 09:38:16;;;;;;;0.50;0.50;;;;;;;15.86;80.85;95841.22;4327702;32;20185;-60
2022/10/25 09:40:55;;;;;;;0.30;0.30;;;;;;;15.87;80.54;95830.22;4353018;32;20201;-61
2022/10/25 09:43:27;;;;;;;0.13;0.13;;;;;;;15.84;81.37;95835.41;4336824;32;20200;-58
2022/10/25 09:46:02;;;;;;;0.33;0.33;;;;;;;15.88;79.83;95842.50;4341767;32;20213;-59
2022/10/25 09:49:00;;;;;;;0.00;0.00;;;;;;;15.74;80.01;95839.97;4331470;32;20204;-60
2022/10/25 09:51:48;;;;;;;4.53;0.53;;;;;;;15.87;79.17;95840.94;4341607;32;20197;-61
2022/10/25 09:54:22;;;;;;;5.40;0.70;;;;;;;15.87;79.48;95838.25;4341361;32;20211;-61
2022/10/25 09:56:48;;;;;;;0.63;0.50;;;;;;;16.08;77.75;95849.91;4353912;32;20738;-59
2022/10/25 09:59:14;;;;;;;0.50;0.50;;;;;;;16.06;79.84;95848.66;4343631;32;20206;-59
2022/10/25 10:01:41;;;;;;;0.60;0.33;;;;;;;15.99;79.10;95851.03;4334960;32;20185;-60
2022/10/25 10:04:34;;;;;;;0.07;0.07;;;;;;;16.05;77.52;95849.75;4344143;32;20207;-60
2022/10/25 10:07:29;;;;;;;0.43;0.43;;;;;;;16.11;75.25;95849.28;4343764;32;20231;-60
2022/10/25 10:09:59;;;;;;;0.37;0.37;;;;;;;16.16;74.68;95845.66;4341051;32;20226;-59
2022/10/25 10:12:52;;;;;;;0.40;0.40;;;;;;;16.19;75.27;95846.94;4353924;32;20220;-60
2022/10/25 10:15:43;;;;;;;0.43;0.37;;;;;;;16.13;76.60;95851.66;4334891;32;20197;-60
2022/10/25 10:18:30;;;;;;;1.37;0.47;;;;;;;16.21;77.54;95836.69;4338690;32;20255;-61
2022/10/25 10:21:03;;;;;;;0.47;0.40;;;;;;;16.13;74.59;95839.06;4336996;32;20296;-60
2022/10/25 10:23:34;;;;;;;3.47;1.73;;;;;;;16.23;74.12;95837.13;4348183;32;20212;-61
2022/10/25 10:26:07;;;;;;;0.50;0.40;;;;;;;16.19;74.88;95837.00;4344133;32;20200;-61
2022/10/25 10:28:34;;;;;;;0.10;0.10;;;;;;;16.14;74.35;95842.50;4336434;32;20185;-61
2022/10/25 10:31:06;;;;;;;0.10;0.10;;;;;;;16.10;75.31;95839.69;4340231;32;20204;-61
2022/10/25 10:33:32;;;;;;;1.73;0.40;;;;;;;16.11;75.38;95837.78;4348748;32;20231;-61
2022/10/25 10:36:27;;;;;;;0.10;0.10;;;;;;;16.23;73.55;95837.94;4349147;32;20204;-61
2022/10/25 10:38:54;;;;;;;0.17;0.17;;;;;;;16.20;74.27;95833.22;4321689;33;20328;-61
2022/10/25 10:41:27;;;;;;;11.23;0.40;;;;;;;16.23;77.31;95826.44;4340548;32;20208;-61
2022/10/25 10:44:12;;;;;;;0.27;0.27;;;;;;;16.26;74.68;95823.91;4344055;32;20284;-60
2022/10/25 10:46:45;;;;;;;1.50;0.30;;;;;;;16.27;77.58;95822.03;4339498;32;20181;-61
2022/10/25 10:49:13;;;;;;;0.00;0.00;;;;;;;16.32;78.87;95821.88;4340420;32;20193;-61
2022/10/25 10:51:42;;;;;;;0.10;0.10;;;;;;;16.21;74.80;95824.06;4336061;32;20295;-61
2022/10/25 10:54:19;;;;;;;0.17;0.17;;;;;;;16.14;73.17;95823.78;4333263;32;20200;-61
2022/10/25 10:56:53;;;;;;;0.63;0.33;;;;;;;16.19;72.94;95831.66;4339529;32;20181;-61
2022/10/25 10:59:33;;;;;;;0.23;0.23;;;;;;;16.22;72.66;95828.31;4330935;32;20229;-61
2022/10/25 11:02:11;;;;;;;0.07;0.07;;;;;;;16.12;74.46;95820.62;4336667;32;20208;-62
2022/10/25 11:04:48;;;;;;;0.10;0.10;;;;;;;16.26;73.17;95818.56;4353428;32;20188;-62
2022/10/25 11:07:23;;;;;;;0.17;0.17;;;;;;;16.24;72.50;95812.72;4341728;32;20196;-61
2022/10/25 11:09:48;;;;;;;0.10;0.10;;;;;;;16.18;73.71;95811.34;4344913;32;20280;-62
2022/10/25 11:12:13;;;;;;;0.27;0.27;;;;;;;16.29;72.95;95817.13;4350877;32;20204;-61
2022/10/25 11:14:39;;;;;;;0.63;0.63;;;;;;;16.30;73.74;95813.34;4321545;32;20194;-61
2022/10/25 11:17:28;;;;;;;0.10;0.10;;;;;;;16.38;73.18;95809.91;4332377;32;20184;-62
2022/10/25 11:20:18;;;;;;;0.27;0.27;;;;;;;16.38;72.54;95816.03;4341157;32;20201;-61
2022/10/25 11:22:56;;;;;;;0.30;0.30;;;;;;;16.42;72.44;95814.28;4318015;33;20297;-61
2022/10/25 11:25:24;;;;;;;0.10;0.10;;;;;;;16.39;74.61;95808.78;4339852;33;20239;-61
2022/10/25 11:28:14;;;;;;;0.20;0.20;;;;;;;16.47;73.79;95808.75;4327593;32;20220;-61
2022/10/25 11:30:54;;;;;;;0.30;0.27;;;;;;;16.60;70.27;95804.34;4355609;32;20223;-63
2022/10/25 11:33:34;;;;;;;0.00;0.00;;;;;;;16.53;72.11;95803.25;4337481;33;20261;-62
2022/10/25 11:36:19;;;;;;;3.03;0.73;;;;;;;16.56;69.94;95797.25;4340836;32;20230;-60
2022/10/25 11:39:00;;;;;;;0.10;0.10;;;;;;;16.67;69.71;95795.81;4327841;32;20193;-61
2022/10/25 11:41:49;;;;;;;0.10;0.10;;;;;;;16.68;70.47;95800.06;4336424;32;20044;-61
2022/10/25 11:45:03;;;;;;;0.00;0.00;;;;;;;16.70;71.46;95784.47;4345739;32;20189;-60
2022/10/25 11:47:54;;;;;;;0.10;0.10;;;;;;;16.53;72.17;95789.84;4293869;32;20233;-61